sensor_id;sensor_type;location;lat;lon;timestamp;temperature;humidity
27619;DHT22;15039;50.830;4.730;2022-10-23T00:01:32;13.70;99.90
27619;DHT22;15039;50.830;4.730;2022-10-23T00:03:59;13.90;99.90
27619;DHT22;15039;50.830;4.730;2022-10-23T00:06:25;14.00;99.90
27619;DHT22;15039;50.830;4.730;2022-10-23T00:08:51;14.10;99.90
27619;DHT22;15039;50.830;4.730;2022-10-23T00:11:18;14.40;99.90
27619;DHT22;15039;50.830;4.730;2022-10-23T00:13:44;14.50;99.90
27619;DHT22;15039;50.830;4.730;2022-10-23T00:16:10;14.60;99.90
27619;DHT22;15039;50.830;4.730;2022-10-23T00:18:36;14.70;99.90
27619;DHT22;15039;50.830;4.730;2022-10-23T00:21:01;14.80;99.90
27619;DHT22;15039;50.830;4.730;2022-10-23T00:23:27;14.80;99.90
27619;DHT22;15039;50.830;4.730;2022-10-23T00:25:53;14.80;99.90
27619;DHT22;15039;50.830;4.730;2022-10-23T00:28:18;14.70;99.90
27619;DHT22;15039;50.830;4.730;2022-10-23T00:30:44;14.60;99.90
27619;DHT22;15039;50.830;4.730;2022-10-23T00:33:09;14.60;99.90
27619;DHT22;15039;50.830;4.730;2022-10-23T00:35:39;14.60;99.90
27619;DHT22;15039;50.830;4.730;2022-10-23T00:38:04;14.70;99.90
27619;DHT22;15039;50.830;4.730;2022-10-23T00:40:30;14.80;99.90
27619;DHT22;15039;50.830;4.730;2022-10-23T00:42:56;14.90;99.90
27619;DHT22;15039;50.830;4.730;2022-10-23T00:45:25;15.00;99.90
27619;DHT22;15039;50.830;4.730;2022-10-23T00:47:51;14.90;99.90
27619;DHT22;15039;50.830;4.730;2022-10-23T00:50:17;15.00;99.90
27619;DHT22;15039;50.830;4.730;2022-10-23T00:52:47;15.10;99.90
27619;DHT22;15039;50.830;4.730;2022-10-23T00:55:13;15.10;99.90
27619;DHT22;15039;50.830;4.730;2022-10-23T00:57:40;15.10;99.90
27619;DHT22;15039;50.830;4.730;2022-10-23T01:00:06;15.20;99.90
27619;DHT22;15039;50.830;4.730;2022-10-23T01:02:32;15.00;99.90
27619;DHT22;15039;50.830;4.730;2022-10-23T01:04:57;15.00;99.90
27619;DHT22;15039;50.830;4.730;2022-10-23T01:07:32;15.00;99.90
27619;DHT22;15039;50.830;4.730;2022-10-23T01:15:30;15.10;99.90
27619;DHT22;15039;50.830;4.730;2022-10-23T01:20:43;15.30;99.90
27619;DHT22;15039;50.830;4.730;2022-10-23T01:23:11;15.30;99.90
27619;DHT22;15039;50.830;4.730;2022-10-23T01:28:29;15.30;99.90
27619;DHT22;15039;50.830;4.730;2022-10-23T01:30:57;15.20;99.90
27619;DHT22;15039;50.830;4.730;2022-10-23T01:33:24;15.20;99.90
27619;DHT22;15039;50.830;4.730;2022-10-23T01:35:52;15.20;99.90
27619;DHT22;15039;50.830;4.730;2022-10-23T01:38:24;15.30;99.90
27619;DHT22;15039;50.830;4.730;2022-10-23T01:41:09;15.40;99.90
27619;DHT22;15039;50.830;4.730;2022-10-23T01:43:40;15.40;99.90
27619;DHT22;15039;50.830;4.730;2022-10-23T01:46:08;15.40;99.90
27619;DHT22;15039;50.830;4.730;2022-10-23T01:48:34;15.40;99.90
27619;DHT22;15039;50.830;4.730;2022-10-23T01:51:02;15.50;99.90
27619;DHT22;15039;50.830;4.730;2022-10-23T01:53:29;15.50;99.90
27619;DHT22;15039;50.830;4.730;2022-10-23T01:55:56;15.40;99.90
27619;DHT22;15039;50.830;4.730;2022-10-23T01:58:22;15.50;99.90
27619;DHT22;15039;50.830;4.730;2022-10-23T02:00:49;15.60;99.90
27619;DHT22;15039;50.830;4.730;2022-10-23T02:03:16;15.40;99.90
27619;DHT22;15039;50.830;4.730;2022-10-23T02:05:42;15.30;99.90
27619;DHT22;15039;50.830;4.730;2022-10-23T02:08:08;15.30;99.90
27619;DHT22;15039;50.830;4.730;2022-10-23T02:10:36;15.40;99.90
27619;DHT22;15039;50.830;4.730;2022-10-23T02:13:05;15.50;99.90
27619;DHT22;15039;50.830;4.730;2022-10-23T02:15:33;15.60;99.90
27619;DHT22;15039;50.830;4.730;2022-10-23T02:18:07;15.70;99.90
27619;DHT22;15039;50.830;4.730;2022-10-23T02:20:37;15.70;99.90
27619;DHT22;15039;50.830;4.730;2022-10-23T02:25:38;15.60;99.90
27619;DHT22;15039;50.830;4.730;2022-10-23T02:28:07;15.60;99.90
27619;DHT22;15039;50.830;4.730;2022-10-23T02:30:35;15.60;99.90
27619;DHT22;15039;50.830;4.730;2022-10-23T02:33:01;15.70;99.90
27619;DHT22;15039;50.830;4.730;2022-10-23T02:35:28;15.70;99.90
27619;DHT22;15039;50.830;4.730;2022-10-23T02:37:54;15.90;99.90
27619;DHT22;15039;50.830;4.730;2022-10-23T02:40:20;15.90;99.90
27619;DHT22;15039;50.830;4.730;2022-10-23T02:42:50;15.70;99.90
27619;DHT22;15039;50.830;4.730;2022-10-23T02:45:18;15.60;99.90
27619;DHT22;15039;50.830;4.730;2022-10-23T02:50:48;15.60;99.90
27619;DHT22;15039;50.830;4.730;2022-10-23T02:53:25;15.60;99.90
27619;DHT22;15039;50.830;4.730;2022-10-23T03:01:02;15.40;99.90
27619;DHT22;15039;50.830;4.730;2022-10-23T03:03:31;15.50;99.90
27619;DHT22;15039;50.830;4.730;2022-10-23T03:05:57;15.70;99.90
27619;DHT22;15039;50.830;4.730;2022-10-23T03:08:23;15.80;99.90
27619;DHT22;15039;50.830;4.730;2022-10-23T03:10:49;15.70;99.90
27619;DHT22;15039;50.830;4.730;2022-10-23T03:13:15;15.60;99.90
27619;DHT22;15039;50.830;4.730;2022-10-23T03:15:41;15.50;99.90
27619;DHT22;15039;50.830;4.730;2022-10-23T03:18:07;15.60;99.90
27619;DHT22;15039;50.830;4.730;2022-10-23T03:20:32;15.50;99.90
27619;DHT22;15039;50.830;4.730;2022-10-23T03:22:58;15.60;99.90
27619;DHT22;15039;50.830;4.730;2022-10-23T03:25:23;15.50;99.90
27619;DHT22;15039;50.830;4.730;2022-10-23T03:27:49;15.60;99.90
27619;DHT22;15039;50.830;4.730;2022-10-23T03:30:14;15.50;99.90
27619;DHT22;15039;50.830;4.730;2022-10-23T03:32:40;15.60;99.90
27619;DHT22;15039;50.830;4.730;2022-10-23T03:35:05;15.70;99.90
27619;DHT22;15039;50.830;4.730;2022-10-23T03:37:31;15.60;99.90
27619;DHT22;15039;50.830;4.730;2022-10-23T03:39:56;15.60;99.90
27619;DHT22;15039;50.830;4.730;2022-10-23T03:42:22;15.70;99.90
27619;DHT22;15039;50.830;4.730;2022-10-23T03:44:47;15.80;99.90
27619;DHT22;15039;50.830;4.730;2022-10-23T03:47:13;15.70;99.90
27619;DHT22;15039;50.830;4.730;2022-10-23T03:49:39;15.70;99.90
27619;DHT22;15039;50.830;4.730;2022-10-23T03:52:05;15.70;99.90
27619;DHT22;15039;50.830;4.730;2022-10-23T03:54:30;15.70;99.90
27619;DHT22;15039;50.830;4.730;2022-10-23T03:56:58;15.70;99.90
27619;DHT22;15039;50.830;4.730;2022-10-23T03:59:23;15.70;99.90
27619;DHT22;15039;50.830;4.730;2022-10-23T04:01:49;15.80;99.90
27619;DHT22;15039;50.830;4.730;2022-10-23T04:04:14;15.80;99.90
27619;DHT22;15039;50.830;4.730;2022-10-23T04:06:40;15.70;99.90
27619;DHT22;15039;50.830;4.730;2022-10-23T04:09:06;15.70;99.90
27619;DHT22;15039;50.830;4.730;2022-10-23T04:11:32;15.70;99.90
27619;DHT22;15039;50.830;4.730;2022-10-23T04:13:57;15.60;99.90
27619;DHT22;15039;50.830;4.730;2022-10-23T04:16:23;15.60;99.90
27619;DHT22;15039;50.830;4.730;2022-10-23T04:18:49;15.60;99.90
27619;DHT22;15039;50.830;4.730;2022-10-23T04:21:14;15.60;99.90
27619;DHT22;15039;50.830;4.730;2022-10-23T04:23:40;15.60;99.90
27619;DHT22;15039;50.830;4.730;2022-10-23T04:26:05;15.40;99.90
27619;DHT22;15039;50.830;4.730;2022-10-23T04:28:31;15.40;99.90
27619;DHT22;15039;50.830;4.730;2022-10-23T04:30:56;15.50;99.90
27619;DHT22;15039;50.830;4.730;2022-10-23T04:33:23;15.40;99.90
27619;DHT22;15039;50.830;4.730;2022-10-23T04:35:49;15.50;99.90
27619;DHT22;15039;50.830;4.730;2022-10-23T04:38:14;15.50;99.90
27619;DHT22;15039;50.830;4.730;2022-10-23T04:40:40;15.70;99.90
27619;DHT22;15039;50.830;4.730;2022-10-23T04:43:05;15.60;99.90
27619;DHT22;15039;50.830;4.730;2022-10-23T04:45:31;15.60;99.90
27619;DHT22;15039;50.830;4.730;2022-10-23T04:47:56;15.60;99.90
27619;DHT22;15039;50.830;4.730;2022-10-23T04:50:22;15.60;99.90
27619;DHT22;15039;50.830;4.730;2022-10-23T04:52:52;15.60;99.90
27619;DHT22;15039;50.830;4.730;2022-10-23T04:55:18;15.60;99.90
27619;DHT22;15039;50.830;4.730;2022-10-23T04:57:43;15.60;99.90
27619;DHT22;15039;50.830;4.730;2022-10-23T05:00:09;15.70;99.90
27619;DHT22;15039;50.830;4.730;2022-10-23T05:02:35;15.80;99.90
27619;DHT22;15039;50.830;4.730;2022-10-23T05:05:00;15.80;99.90
27619;DHT22;15039;50.830;4.730;2022-10-23T05:07:26;15.90;99.90
27619;DHT22;15039;50.830;4.730;2022-10-23T05:09:51;15.90;99.90
27619;DHT22;15039;50.830;4.730;2022-10-23T05:12:17;16.00;99.90
27619;DHT22;15039;50.830;4.730;2022-10-23T05:14:42;16.00;99.90
27619;DHT22;15039;50.830;4.730;2022-10-23T05:17:10;16.10;99.90
27619;DHT22;15039;50.830;4.730;2022-10-23T05:19:38;16.00;99.90
27619;DHT22;15039;50.830;4.730;2022-10-23T05:22:05;15.80;99.90
27619;DHT22;15039;50.830;4.730;2022-10-23T05:24:31;15.80;99.90
27619;DHT22;15039;50.830;4.730;2022-10-23T05:26:56;15.80;99.90
27619;DHT22;15039;50.830;4.730;2022-10-23T05:29:22;15.70;99.90
27619;DHT22;15039;50.830;4.730;2022-10-23T05:31:48;15.70;99.90
27619;DHT22;15039;50.830;4.730;2022-10-23T05:34:15;15.90;99.90
27619;DHT22;15039;50.830;4.730;2022-10-23T05:36:41;15.80;99.90
27619;DHT22;15039;50.830;4.730;2022-10-23T05:39:07;15.70;99.90
27619;DHT22;15039;50.830;4.730;2022-10-23T05:41:33;15.60;99.90
27619;DHT22;15039;50.830;4.730;2022-10-23T05:43:58;15.50;99.90
27619;DHT22;15039;50.830;4.730;2022-10-23T05:46:23;15.60;99.90
27619;DHT22;15039;50.830;4.730;2022-10-23T05:48:49;15.50;99.90
27619;DHT22;15039;50.830;4.730;2022-10-23T05:51:15;15.50;99.90
27619;DHT22;15039;50.830;4.730;2022-10-23T05:53:45;15.30;99.90
27619;DHT22;15039;50.830;4.730;2022-10-23T05:56:10;15.20;99.90
27619;DHT22;15039;50.830;4.730;2022-10-23T05:58:36;15.30;99.90
27619;DHT22;15039;50.830;4.730;2022-10-23T06:01:05;15.30;99.90
27619;DHT22;15039;50.830;4.730;2022-10-23T06:03:31;15.10;99.90
27619;DHT22;15039;50.830;4.730;2022-10-23T06:05:57;15.10;99.90
27619;DHT22;15039;50.830;4.730;2022-10-23T06:08:23;15.00;99.90
27619;DHT22;15039;50.830;4.730;2022-10-23T06:10:48;14.90;99.90
27619;DHT22;15039;50.830;4.730;2022-10-23T06:13:14;15.10;99.90
27619;DHT22;15039;50.830;4.730;2022-10-23T06:15:40;15.00;99.90
27619;DHT22;15039;50.830;4.730;2022-10-23T06:18:05;15.20;99.90
27619;DHT22;15039;50.830;4.730;2022-10-23T06:20:33;15.20;99.90
27619;DHT22;15039;50.830;4.730;2022-10-23T06:22:59;15.10;99.90
27619;DHT22;15039;50.830;4.730;2022-10-23T06:25:27;15.10;99.90
27619;DHT22;15039;50.830;4.730;2022-10-23T06:27:52;15.10;99.90
27619;DHT22;15039;50.830;4.730;2022-10-23T06:30:18;15.20;99.90
27619;DHT22;15039;50.830;4.730;2022-10-23T06:32:44;15.30;99.90
27619;DHT22;15039;50.830;4.730;2022-10-23T06:35:09;15.50;99.90
27619;DHT22;15039;50.830;4.730;2022-10-23T06:37:35;15.60;99.90
27619;DHT22;15039;50.830;4.730;2022-10-23T06:40:00;15.70;99.90
27619;DHT22;15039;50.830;4.730;2022-10-23T06:42:26;15.50;99.90
27619;DHT22;15039;50.830;4.730;2022-10-23T06:44:51;15.50;99.90
27619;DHT22;15039;50.830;4.730;2022-10-23T06:47:17;15.60;99.90
27619;DHT22;15039;50.830;4.730;2022-10-23T06:49:42;15.60;99.90
27619;DHT22;15039;50.830;4.730;2022-10-23T06:52:08;15.60;99.90
27619;DHT22;15039;50.830;4.730;2022-10-23T06:54:33;15.50;99.90
27619;DHT22;15039;50.830;4.730;2022-10-23T06:56:59;15.50;99.90
27619;DHT22;15039;50.830;4.730;2022-10-23T06:59:24;15.40;99.90
27619;DHT22;15039;50.830;4.730;2022-10-23T07:01:50;15.40;99.90
27619;DHT22;15039;50.830;4.730;2022-10-23T07:04:15;15.40;99.90
27619;DHT22;15039;50.830;4.730;2022-10-23T07:06:41;15.40;99.90
27619;DHT22;15039;50.830;4.730;2022-10-23T07:09:07;15.40;99.90
27619;DHT22;15039;50.830;4.730;2022-10-23T07:11:32;15.50;99.90
27619;DHT22;15039;50.830;4.730;2022-10-23T07:13:58;15.60;99.90
27619;DHT22;15039;50.830;4.730;2022-10-23T07:16:24;15.80;99.90
27619;DHT22;15039;50.830;4.730;2022-10-23T07:18:53;16.00;99.90
27619;DHT22;15039;50.830;4.730;2022-10-23T07:21:23;16.10;99.90
27619;DHT22;15039;50.830;4.730;2022-10-23T07:23:49;16.10;99.90
27619;DHT22;15039;50.830;4.730;2022-10-23T07:26:14;16.10;99.90
27619;DHT22;15039;50.830;4.730;2022-10-23T07:28:41;16.10;99.90
27619;DHT22;15039;50.830;4.730;2022-10-23T07:31:07;16.20;99.90
27619;DHT22;15039;50.830;4.730;2022-10-23T07:33:33;16.10;99.90
27619;DHT22;15039;50.830;4.730;2022-10-23T07:35:59;16.00;99.90
27619;DHT22;15039;50.830;4.730;2022-10-23T07:38:25;16.20;99.90
27619;DHT22;15039;50.830;4.730;2022-10-23T07:40:51;16.20;99.90
27619;DHT22;15039;50.830;4.730;2022-10-23T07:43:18;16.40;99.90
27619;DHT22;15039;50.830;4.730;2022-10-23T07:45:45;16.30;99.90
27619;DHT22;15039;50.830;4.730;2022-10-23T07:48:11;16.30;99.90
27619;DHT22;15039;50.830;4.730;2022-10-23T07:50:37;16.40;99.90
27619;DHT22;15039;50.830;4.730;2022-10-23T07:53:02;16.40;99.90
27619;DHT22;15039;50.830;4.730;2022-10-23T07:55:27;16.40;99.90
27619;DHT22;15039;50.830;4.730;2022-10-23T07:57:53;16.40;99.90
27619;DHT22;15039;50.830;4.730;2022-10-23T08:00:19;16.30;99.90
27619;DHT22;15039;50.830;4.730;2022-10-23T08:02:44;16.20;99.90
27619;DHT22;15039;50.830;4.730;2022-10-23T08:05:10;16.30;99.90
27619;DHT22;15039;50.830;4.730;2022-10-23T08:07:35;16.40;99.90
27619;DHT22;15039;50.830;4.730;2022-10-23T08:10:01;16.40;99.90
27619;DHT22;15039;50.830;4.730;2022-10-23T08:12:26;16.40;99.90
27619;DHT22;15039;50.830;4.730;2022-10-23T08:14:52;16.40;99.90
27619;DHT22;15039;50.830;4.730;2022-10-23T08:17:17;16.50;99.90
27619;DHT22;15039;50.830;4.730;2022-10-23T08:19:43;16.50;99.90
27619;DHT22;15039;50.830;4.730;2022-10-23T08:22:11;16.50;99.90
27619;DHT22;15039;50.830;4.730;2022-10-23T08:24:36;16.60;99.90
27619;DHT22;15039;50.830;4.730;2022-10-23T08:27:02;16.60;99.90
27619;DHT22;15039;50.830;4.730;2022-10-23T08:29:27;16.50;99.90
27619;DHT22;15039;50.830;4.730;2022-10-23T08:31:53;16.70;99.90
27619;DHT22;15039;50.830;4.730;2022-10-23T08:34:20;16.80;99.90
27619;DHT22;15039;50.830;4.730;2022-10-23T08:36:46;16.80;99.90
27619;DHT22;15039;50.830;4.730;2022-10-23T08:39:12;16.80;99.90
27619;DHT22;15039;50.830;4.730;2022-10-23T08:41:38;16.70;99.90
27619;DHT22;15039;50.830;4.730;2022-10-23T08:46:40;17.00;99.90
27619;DHT22;15039;50.830;4.730;2022-10-23T08:49:16;17.00;99.90
27619;DHT22;15039;50.830;4.730;2022-10-23T08:51:45;17.00;99.90
27619;DHT22;15039;50.830;4.730;2022-10-23T08:54:22;17.00;99.90
27619;DHT22;15039;50.830;4.730;2022-10-23T08:56:50;17.10;99.90
27619;DHT22;15039;50.830;4.730;2022-10-23T09:04:28;17.10;99.90
27619;DHT22;15039;50.830;4.730;2022-10-23T09:07:19;17.20;99.90
27619;DHT22;15039;50.830;4.730;2022-10-23T09:12:06;17.20;99.90
27619;DHT22;15039;50.830;4.730;2022-10-23T09:19:39;17.60;99.90
27619;DHT22;15039;50.830;4.730;2022-10-23T09:22:05;17.60;99.90
27619;DHT22;15039;50.830;4.730;2022-10-23T09:24:32;17.50;99.90
27619;DHT22;15039;50.830;4.730;2022-10-23T09:26:58;17.40;99.90
27619;DHT22;15039;50.830;4.730;2022-10-23T09:31:51;17.40;99.90
27619;DHT22;15039;50.830;4.730;2022-10-23T09:34:18;17.40;99.90
27619;DHT22;15039;50.830;4.730;2022-10-23T09:36:51;17.40;99.90
27619;DHT22;15039;50.830;4.730;2022-10-23T09:39:21;17.50;99.90
27619;DHT22;15039;50.830;4.730;2022-10-23T09:41:47;17.60;99.90
27619;DHT22;15039;50.830;4.730;2022-10-23T09:46:42;17.90;99.90
27619;DHT22;15039;50.830;4.730;2022-10-23T09:49:14;18.00;99.90
27619;DHT22;15039;50.830;4.730;2022-10-23T09:51:45;18.20;99.90
27619;DHT22;15039;50.830;4.730;2022-10-23T09:54:12;18.30;99.90
27619;DHT22;15039;50.830;4.730;2022-10-23T09:56:45;18.40;99.90
27619;DHT22;15039;50.830;4.730;2022-10-23T10:04:18;18.80;99.90
27619;DHT22;15039;50.830;4.730;2022-10-23T10:06:44;18.90;99.90
27619;DHT22;15039;50.830;4.730;2022-10-23T10:11:51;19.20;99.90
27619;DHT22;15039;50.830;4.730;2022-10-23T10:16:50;19.40;99.90
27619;DHT22;15039;50.830;4.730;2022-10-23T10:22:15;19.40;99.90
27619;DHT22;15039;50.830;4.730;2022-10-23T10:24:38;19.40;99.90
27619;DHT22;15039;50.830;4.730;2022-10-23T10:27:13;19.50;99.90
27619;DHT22;15039;50.830;4.730;2022-10-23T10:29:46;19.50;99.90
27619;DHT22;15039;50.830;4.730;2022-10-23T10:40:32;19.50;99.90
27619;DHT22;15039;50.830;4.730;2022-10-23T10:43:09;19.60;99.90
27619;DHT22;15039;50.830;4.730;2022-10-23T10:45:41;19.70;99.90
27619;DHT22;15039;50.830;4.730;2022-10-23T10:48:13;19.70;99.90
27619;DHT22;15039;50.830;4.730;2022-10-23T10:53:11;19.70;99.90
27619;DHT22;15039;50.830;4.730;2022-10-23T10:55:42;19.50;99.90
27619;DHT22;15039;50.830;4.730;2022-10-23T10:58:16;19.60;99.90
27619;DHT22;15039;50.830;4.730;2022-10-23T11:00:43;19.60;99.90
27619;DHT22;15039;50.830;4.730;2022-10-23T11:03:21;19.70;99.90
27619;DHT22;15039;50.830;4.730;2022-10-23T11:05:49;19.90;99.90
27619;DHT22;15039;50.830;4.730;2022-10-23T11:08:17;19.90;99.90
27619;DHT22;15039;50.830;4.730;2022-10-23T11:10:46;20.00;99.90
27619;DHT22;15039;50.830;4.730;2022-10-23T11:13:21;20.00;99.90
27619;DHT22;15039;50.830;4.730;2022-10-23T11:15:48;20.00;99.90
27619;DHT22;15039;50.830;4.730;2022-10-23T11:18:16;20.10;99.90
27619;DHT22;15039;50.830;4.730;2022-10-23T11:20:50;20.10;99.90
27619;DHT22;15039;50.830;4.730;2022-10-23T11:23:39;20.20;99.90
27619;DHT22;15039;50.830;4.730;2022-10-23T11:31:22;20.20;99.90
27619;DHT22;15039;50.830;4.730;2022-10-23T11:34:35;20.20;99.90
27619;DHT22;15039;50.830;4.730;2022-10-23T11:39:21;20.20;99.90
27619;DHT22;15039;50.830;4.730;2022-10-23T11:41:49;20.30;99.90
27619;DHT22;15039;50.830;4.730;2022-10-23T11:44:48;20.50;99.90
27619;DHT22;15039;50.830;4.730;2022-10-23T11:50:03;20.60;99.90
27619;DHT22;15039;50.830;4.730;2022-10-23T11:52:29;20.70;99.90
27619;DHT22;15039;50.830;4.730;2022-10-23T11:55:02;20.70;99.90
27619;DHT22;15039;50.830;4.730;2022-10-23T11:57:27;20.70;99.90
27619;DHT22;15039;50.830;4.730;2022-10-23T11:59:53;20.70;99.90
27619;DHT22;15039;50.830;4.730;2022-10-23T12:04:51;20.90;99.90
27619;DHT22;15039;50.830;4.730;2022-10-23T12:07:25;21.00;99.90
27619;DHT22;15039;50.830;4.730;2022-10-23T12:09:53;21.10;99.90
27619;DHT22;15039;50.830;4.730;2022-10-23T12:14:52;21.10;99.90
27619;DHT22;15039;50.830;4.730;2022-10-23T12:19:47;21.30;99.90
27619;DHT22;15039;50.830;4.730;2022-10-23T12:22:13;21.50;99.90
27619;DHT22;15039;50.830;4.730;2022-10-23T12:24:45;21.50;99.90
27619;DHT22;15039;50.830;4.730;2022-10-23T12:27:18;21.50;99.90
27619;DHT22;15039;50.830;4.730;2022-10-23T12:30:03;21.50;99.90
27619;DHT22;15039;50.830;4.730;2022-10-23T12:32:50;21.60;99.90
27619;DHT22;15039;50.830;4.730;2022-10-23T12:38:12;21.50;99.90
27619;DHT22;15039;50.830;4.730;2022-10-23T12:40:38;21.60;99.90
27619;DHT22;15039;50.830;4.730;2022-10-23T12:43:15;21.70;99.90
27619;DHT22;15039;50.830;4.730;2022-10-23T12:45:44;21.80;99.90
27619;DHT22;15039;50.830;4.730;2022-10-23T12:48:17;21.80;99.90
27619;DHT22;15039;50.830;4.730;2022-10-23T12:50:43;21.80;99.90
27619;DHT22;15039;50.830;4.730;2022-10-23T12:53:14;21.80;99.90
27619;DHT22;15039;50.830;4.730;2022-10-23T12:58:18;21.90;99.90
27619;DHT22;15039;50.830;4.730;2022-10-23T13:00:54;22.00;99.90
27619;DHT22;15039;50.830;4.730;2022-10-23T13:03:20;22.10;99.90
27619;DHT22;15039;50.830;4.730;2022-10-23T13:05:48;22.10;99.90
27619;DHT22;15039;50.830;4.730;2022-10-23T13:08:14;22.10;99.90
27619;DHT22;15039;50.830;4.730;2022-10-23T13:10:39;22.10;99.90
27619;DHT22;15039;50.830;4.730;2022-10-23T13:13:05;22.10;99.90
27619;DHT22;15039;50.830;4.730;2022-10-23T13:15:39;22.00;99.90
27619;DHT22;15039;50.830;4.730;2022-10-23T13:18:05;22.10;99.90
27619;DHT22;15039;50.830;4.730;2022-10-23T13:20:37;22.10;99.90
27619;DHT22;15039;50.830;4.730;2022-10-23T13:23:09;22.20;99.90
27619;DHT22;15039;50.830;4.730;2022-10-23T13:25:36;22.20;99.90
27619;DHT22;15039;50.830;4.730;2022-10-23T13:28:22;22.10;99.90
27619;DHT22;15039;50.830;4.730;2022-10-23T13:31:05;22.10;99.90
27619;DHT22;15039;50.830;4.730;2022-10-23T13:33:38;22.00;99.90
27619;DHT22;15039;50.830;4.730;2022-10-23T13:38:34;22.00;99.90
27619;DHT22;15039;50.830;4.730;2022-10-23T13:41:00;21.90;99.90
27619;DHT22;15039;50.830;4.730;2022-10-23T13:43:26;21.80;99.90
27619;DHT22;15039;50.830;4.730;2022-10-23T13:45:53;21.90;99.90
27619;DHT22;15039;50.830;4.730;2022-10-23T13:48:19;21.80;99.90
27619;DHT22;15039;50.830;4.730;2022-10-23T13:50:45;21.80;99.90
27619;DHT22;15039;50.830;4.730;2022-10-23T13:53:11;21.80;99.90
27619;DHT22;15039;50.830;4.730;2022-10-23T13:55:36;21.70;99.90
27619;DHT22;15039;50.830;4.730;2022-10-23T13:58:04;21.80;99.90
27619;DHT22;15039;50.830;4.730;2022-10-23T14:00:30;21.80;99.90
27619;DHT22;15039;50.830;4.730;2022-10-23T14:02:55;21.80;99.90
27619;DHT22;15039;50.830;4.730;2022-10-23T14:05:21;21.70;99.90
27619;DHT22;15039;50.830;4.730;2022-10-23T14:07:47;21.60;99.90
27619;DHT22;15039;50.830;4.730;2022-10-23T14:10:12;21.70;99.90
27619;DHT22;15039;50.830;4.730;2022-10-23T14:12:38;21.80;99.90
27619;DHT22;15039;50.830;4.730;2022-10-23T14:15:04;21.70;99.90
27619;DHT22;15039;50.830;4.730;2022-10-23T14:17:30;21.70;99.90
27619;DHT22;15039;50.830;4.730;2022-10-23T14:19:56;21.70;99.90
27619;DHT22;15039;50.830;4.730;2022-10-23T14:22:21;21.70;99.90
27619;DHT22;15039;50.830;4.730;2022-10-23T14:24:47;21.70;99.90
27619;DHT22;15039;50.830;4.730;2022-10-23T14:27:12;21.60;99.90
27619;DHT22;15039;50.830;4.730;2022-10-23T14:29:39;21.60;99.90
27619;DHT22;15039;50.830;4.730;2022-10-23T14:32:04;21.60;99.90
27619;DHT22;15039;50.830;4.730;2022-10-23T14:34:30;21.60;99.90
27619;DHT22;15039;50.830;4.730;2022-10-23T14:36:55;21.40;99.90
27619;DHT22;15039;50.830;4.730;2022-10-23T14:39:21;21.50;99.90
27619;DHT22;15039;50.830;4.730;2022-10-23T14:41:46;21.50;99.90
27619;DHT22;15039;50.830;4.730;2022-10-23T14:44:12;21.40;99.90
27619;DHT22;15039;50.830;4.730;2022-10-23T14:46:37;21.30;99.90
27619;DHT22;15039;50.830;4.730;2022-10-23T14:49:03;21.40;99.90
27619;DHT22;15039;50.830;4.730;2022-10-23T14:51:28;21.40;99.90
27619;DHT22;15039;50.830;4.730;2022-10-23T14:54:00;21.30;99.90
27619;DHT22;15039;50.830;4.730;2022-10-23T14:56:27;21.30;99.90
27619;DHT22;15039;50.830;4.730;2022-10-23T14:58:53;21.20;99.90
27619;DHT22;15039;50.830;4.730;2022-10-23T15:01:19;21.10;99.90
27619;DHT22;15039;50.830;4.730;2022-10-23T15:03:45;21.00;99.90
27619;DHT22;15039;50.830;4.730;2022-10-23T15:06:10;21.00;99.90
27619;DHT22;15039;50.830;4.730;2022-10-23T15:08:36;21.00;99.90
27619;DHT22;15039;50.830;4.730;2022-10-23T15:11:02;20.90;99.90
27619;DHT22;15039;50.830;4.730;2022-10-23T15:13:28;20.90;99.90
27619;DHT22;15039;50.830;4.730;2022-10-23T15:16:00;20.90;99.90
27619;DHT22;15039;50.830;4.730;2022-10-23T15:18:26;20.80;99.90
27619;DHT22;15039;50.830;4.730;2022-10-23T15:20:52;20.80;99.90
27619;DHT22;15039;50.830;4.730;2022-10-23T15:23:18;20.70;99.90
27619;DHT22;15039;50.830;4.730;2022-10-23T15:25:43;20.60;99.90
27619;DHT22;15039;50.830;4.730;2022-10-23T15:28:09;20.70;99.90
27619;DHT22;15039;50.830;4.730;2022-10-23T15:30:34;20.70;99.90
27619;DHT22;15039;50.830;4.730;2022-10-23T15:33:00;20.70;99.90
27619;DHT22;15039;50.830;4.730;2022-10-23T15:35:25;20.70;99.90
27619;DHT22;15039;50.830;4.730;2022-10-23T15:37:51;20.60;99.90
27619;DHT22;15039;50.830;4.730;2022-10-23T15:40:16;20.70;99.90
27619;DHT22;15039;50.830;4.730;2022-10-23T15:42:42;20.60;99.90
27619;DHT22;15039;50.830;4.730;2022-10-23T15:45:08;20.80;99.90
27619;DHT22;15039;50.830;4.730;2022-10-23T15:47:34;20.70;99.90
27619;DHT22;15039;50.830;4.730;2022-10-23T15:49:59;20.60;99.90
27619;DHT22;15039;50.830;4.730;2022-10-23T15:52:25;20.60;99.90
27619;DHT22;15039;50.830;4.730;2022-10-23T15:54:50;20.60;99.90
27619;DHT22;15039;50.830;4.730;2022-10-23T15:57:16;20.60;99.90
27619;DHT22;15039;50.830;4.730;2022-10-23T15:59:41;20.60;99.90
27619;DHT22;15039;50.830;4.730;2022-10-23T16:02:08;20.60;99.90
27619;DHT22;15039;50.830;4.730;2022-10-23T16:04:34;20.50;99.90
27619;DHT22;15039;50.830;4.730;2022-10-23T16:06:59;20.50;99.90
27619;DHT22;15039;50.830;4.730;2022-10-23T16:09:25;20.50;99.90
27619;DHT22;15039;50.830;4.730;2022-10-23T16:11:50;20.50;99.90
27619;DHT22;15039;50.830;4.730;2022-10-23T16:14:16;20.40;99.90
27619;DHT22;15039;50.830;4.730;2022-10-23T16:16:41;20.40;99.90
27619;DHT22;15039;50.830;4.730;2022-10-23T16:19:08;20.30;99.90
27619;DHT22;15039;50.830;4.730;2022-10-23T16:21:34;20.30;99.90
27619;DHT22;15039;50.830;4.730;2022-10-23T16:24:01;20.20;99.90
27619;DHT22;15039;50.830;4.730;2022-10-23T16:26:27;20.10;99.90
27619;DHT22;15039;50.830;4.730;2022-10-23T16:28:53;20.10;99.90
27619;DHT22;15039;50.830;4.730;2022-10-23T16:31:19;20.10;99.90
27619;DHT22;15039;50.830;4.730;2022-10-23T16:33:45;20.00;99.90
27619;DHT22;15039;50.830;4.730;2022-10-23T16:36:11;19.90;99.90
27619;DHT22;15039;50.830;4.730;2022-10-23T16:38:36;19.90;99.90
27619;DHT22;15039;50.830;4.730;2022-10-23T16:41:02;20.00;99.90
27619;DHT22;15039;50.830;4.730;2022-10-23T16:43:27;19.90;99.90
27619;DHT22;15039;50.830;4.730;2022-10-23T16:46:14;19.90;99.90
27619;DHT22;15039;50.830;4.730;2022-10-23T16:48:39;19.80;99.90
27619;DHT22;15039;50.830;4.730;2022-10-23T16:51:09;19.80;99.90
27619;DHT22;15039;50.830;4.730;2022-10-23T16:53:35;19.70;99.90
27619;DHT22;15039;50.830;4.730;2022-10-23T16:56:04;19.60;99.90
27619;DHT22;15039;50.830;4.730;2022-10-23T16:58:30;19.60;99.90
27619;DHT22;15039;50.830;4.730;2022-10-23T17:00:59;19.60;99.90
27619;DHT22;15039;50.830;4.730;2022-10-23T17:03:26;19.50;99.90